sensor_id;sensor_type;location;lat;lon;timestamp;pressure;altitude;pressure_sealevel;temperature;humidity
51297;BME280;37380;45.186;9.792;2022-10-17T00:03:05;102165.88;;;15.41;100.00
51297;BME280;37380;45.186;9.792;2022-10-17T00:17:29;102171.72;;;15.32;100.00
51297;BME280;37380;45.186;9.792;2022-10-17T00:25:03;102179.69;;;15.34;100.00
51297;BME280;37380;45.186;9.792;2022-10-17T00:32:33;102189.97;;;15.28;100.00
51297;BME280;37380;45.186;9.792;2022-10-17T00:35:45;102190.44;;;15.40;100.00
51297;BME280;37380;45.186;9.792;2022-10-17T00:39:11;102205.91;;;15.31;100.00
51297;BME280;37380;45.186;9.792;2022-10-17T00:42:35;102189.22;;;15.09;100.00
51297;BME280;37380;45.186;9.792;2022-10-17T00:49:05;102190.63;;;15.22;100.00
51297;BME280;37380;45.186;9.792;2022-10-17T00:52:17;102200.09;;;15.39;100.00
51297;BME280;37380;45.186;9.792;2022-10-17T00:55:42;102196.38;;;15.34;100.00
51297;BME280;37380;45.186;9.792;2022-10-17T01:03:23;102197.03;;;15.29;100.00
51297;BME280;37380;45.186;9.792;2022-10-17T01:06:47;102194.16;;;15.23;100.00
51297;BME280;37380;45.186;9.792;2022-10-17T01:33:58;102188.28;;;15.30;100.00
51297;BME280;37380;45.186;9.792;2022-10-17T01:53:30;102193.66;;;15.33;100.00
51297;BME280;37380;45.186;9.792;2022-10-17T02:06:43;102201.97;;;14.99;100.00
51297;BME280;37380;45.186;9.792;2022-10-17T02:45:56;102211.63;;;14.37;100.00
51297;BME280;37380;45.186;9.792;2022-10-17T02:58:56;102206.00;;;14.08;100.00
51297;BME280;37380;45.186;9.792;2022-10-17T03:02:49;102209.81;;;13.95;100.00
51297;BME280;37380;45.186;9.792;2022-10-17T03:05:50;102210.03;;;14.00;100.00
51297;BME280;37380;45.186;9.792;2022-10-17T03:08:43;102213.81;;;14.07;100.00
51297;BME280;37380;45.186;9.792;2022-10-17T03:11:16;102211.94;;;14.04;100.00
51297;BME280;37380;45.186;9.792;2022-10-17T03:14:12;102214.28;;;13.98;100.00
51297;BME280;37380;45.186;9.792;2022-10-17T03:16:40;102215.47;;;14.04;100.00
51297;BME280;37380;45.186;9.792;2022-10-17T03:19:13;102212.28;;;13.92;100.00
51297;BME280;37380;45.186;9.792;2022-10-17T03:22:07;102212.78;;;14.03;100.00
51297;BME280;37380;45.186;9.792;2022-10-17T03:24:35;102214.16;;;13.95;100.00
51297;BME280;37380;45.186;9.792;2022-10-17T03:27:02;102215.94;;;13.96;100.00
51297;BME280;37380;45.186;9.792;2022-10-17T03:29:29;102217.19;;;14.04;100.00
51297;BME280;37380;45.186;9.792;2022-10-17T03:31:56;102230.47;;;14.07;100.00
51297;BME280;37380;45.186;9.792;2022-10-17T03:34:24;102233.31;;;14.12;100.00
51297;BME280;37380;45.186;9.792;2022-10-17T03:36:51;102234.97;;;14.10;100.00
51297;BME280;37380;45.186;9.792;2022-10-17T03:39:18;102239.19;;;14.06;100.00
51297;BME280;37380;45.186;9.792;2022-10-17T03:41:45;102242.81;;;14.08;100.00
51297;BME280;37380;45.186;9.792;2022-10-17T03:44:13;102253.47;;;14.11;100.00
51297;BME280;37380;45.186;9.792;2022-10-17T03:46:40;102250.25;;;13.99;100.00
51297;BME280;37380;45.186;9.792;2022-10-17T03:49:13;102251.22;;;14.01;100.00
51297;BME280;37380;45.186;9.792;2022-10-17T03:52:14;102248.72;;;14.04;100.00
51297;BME280;37380;45.186;9.792;2022-10-17T03:54:43;102247.97;;;13.87;100.00
51297;BME280;37380;45.186;9.792;2022-10-17T03:57:10;102253.34;;;13.90;100.00
51297;BME280;37380;45.186;9.792;2022-10-17T03:59:39;102255.22;;;13.73;100.00
51297;BME280;37380;45.186;9.792;2022-10-17T04:02:18;102261.31;;;13.92;100.00
51297;BME280;37380;45.186;9.792;2022-10-17T04:05:21;102265.13;;;13.79;100.00
51297;BME280;37380;45.186;9.792;2022-10-17T04:08:22;102269.03;;;13.69;100.00
51297;BME280;37380;45.186;9.792;2022-10-17T04:11:26;102275.63;;;13.79;100.00
51297;BME280;37380;45.186;9.792;2022-10-17T04:14:28;102287.19;;;13.82;100.00
51297;BME280;37380;45.186;9.792;2022-10-17T04:17:10;102286.00;;;13.76;100.00
51297;BME280;37380;45.186;9.792;2022-10-17T04:19:43;102292.16;;;13.76;100.00
51297;BME280;37380;45.186;9.792;2022-10-17T04:22:38;102297.34;;;13.94;100.00
51297;BME280;37380;45.186;9.792;2022-10-17T04:25:05;102289.50;;;14.14;100.00
51297;BME280;37380;45.186;9.792;2022-10-17T04:27:34;102291.06;;;14.30;100.00
51297;BME280;37380;45.186;9.792;2022-10-17T04:30:01;102292.00;;;14.51;100.00
51297;BME280;37380;45.186;9.792;2022-10-17T04:32:31;102299.75;;;14.48;100.00
51297;BME280;37380;45.186;9.792;2022-10-17T04:35:07;102303.28;;;14.48;100.00
51297;BME280;37380;45.186;9.792;2022-10-17T04:37:35;102308.81;;;14.53;100.00
51297;BME280;37380;45.186;9.792;2022-10-17T04:40:08;102311.53;;;14.55;100.00
51297;BME280;37380;45.186;9.792;2022-10-17T04:42:51;102308.91;;;14.76;100.00
51297;BME280;37380;45.186;9.792;2022-10-17T04:45:23;102317.31;;;14.88;100.00
51297;BME280;37380;45.186;9.792;2022-10-17T04:47:56;102313.97;;;14.92;100.00
51297;BME280;37380;45.186;9.792;2022-10-17T04:50:23;102313.44;;;14.99;100.00
51297;BME280;37380;45.186;9.792;2022-10-17T04:53:10;102312.53;;;14.99;100.00
51297;BME280;37380;45.186;9.792;2022-10-17T04:55:37;102314.09;;;14.95;100.00
51297;BME280;37380;45.186;9.792;2022-10-17T04:58:05;102324.34;;;15.08;100.00
51297;BME280;37380;45.186;9.792;2022-10-17T05:00:32;102317.28;;;15.07;100.00
51297;BME280;37380;45.186;9.792;2022-10-17T05:03:10;102326.66;;;15.22;100.00
51297;BME280;37380;45.186;9.792;2022-10-17T05:06:05;102318.09;;;15.06;100.00
51297;BME280;37380;45.186;9.792;2022-10-17T05:08:33;102323.06;;;15.20;100.00
51297;BME280;37380;45.186;9.792;2022-10-17T05:11:17;102321.66;;;15.28;100.00
51297;BME280;37380;45.186;9.792;2022-10-17T05:14:18;102327.03;;;15.31;100.00
51297;BME280;37380;45.186;9.792;2022-10-17T05:17:13;102323.94;;;15.41;100.00
51297;BME280;37380;45.186;9.792;2022-10-17T05:19:45;102327.53;;;15.43;100.00
51297;BME280;37380;45.186;9.792;2022-10-17T05:22:41;102333.22;;;15.10;100.00
51297;BME280;37380;45.186;9.792;2022-10-17T05:25:10;102330.34;;;15.27;100.00
51297;BME280;37380;45.186;9.792;2022-10-17T05:27:44;102329.47;;;15.26;100.00
51297;BME280;37380;45.186;9.792;2022-10-17T05:30:38;102325.63;;;15.39;100.00
51297;BME280;37380;45.186;9.792;2022-10-17T05:33:06;102330.59;;;15.33;100.00
51297;BME280;37380;45.186;9.792;2022-10-17T05:35:34;102329.84;;;15.35;100.00
51297;BME280;37380;45.186;9.792;2022-10-17T05:38:01;102331.13;;;15.45;100.00
51297;BME280;37380;45.186;9.792;2022-10-17T05:40:31;102335.31;;;15.40;100.00
51297;BME280;37380;45.186;9.792;2022-10-17T05:42:57;102337.44;;;15.28;100.00
51297;BME280;37380;45.186;9.792;2022-10-17T05:45:25;102333.38;;;15.15;100.00
51297;BME280;37380;45.186;9.792;2022-10-17T05:47:58;102330.69;;;15.13;100.00
51297;BME280;37380;45.186;9.792;2022-10-17T05:50:57;102336.78;;;14.91;100.00
51297;BME280;37380;45.186;9.792;2022-10-17T05:53:24;102335.00;;;15.11;100.00
51297;BME280;37380;45.186;9.792;2022-10-17T05:55:58;102336.34;;;15.23;100.00
51297;BME280;37380;45.186;9.792;2022-10-17T05:58:26;102346.00;;;15.01;100.00
51297;BME280;37380;45.186;9.792;2022-10-17T06:01:24;102339.41;;;15.12;100.00
51297;BME280;37380;45.186;9.792;2022-10-17T06:03:58;102342.22;;;15.15;100.00
51297;BME280;37380;45.186;9.792;2022-10-17T06:06:59;102361.28;;;15.31;100.00
51297;BME280;37380;45.186;9.792;2022-10-17T06:09:54;102360.56;;;15.35;100.00
51297;BME280;37380;45.186;9.792;2022-10-17T06:12:26;102364.50;;;15.45;100.00
51297;BME280;37380;45.186;9.792;2022-10-17T06:15:27;102364.25;;;15.61;100.00
51297;BME280;37380;45.186;9.792;2022-10-17T06:18:28;102376.28;;;15.75;100.00
51297;BME280;37380;45.186;9.792;2022-10-17T06:21:29;102380.84;;;15.79;100.00
51297;BME280;37380;45.186;9.792;2022-10-17T06:24:28;102379.03;;;15.78;100.00
51297;BME280;37380;45.186;9.792;2022-10-17T06:26:55;102385.81;;;15.72;100.00
51297;BME280;37380;45.186;9.792;2022-10-17T06:29:23;102386.91;;;15.77;100.00
51297;BME280;37380;45.186;9.792;2022-10-17T06:31:50;102381.91;;;15.84;100.00
51297;BME280;37380;45.186;9.792;2022-10-17T06:34:18;102379.38;;;15.86;100.00
51297;BME280;37380;45.186;9.792;2022-10-17T06:36:46;102386.06;;;16.00;100.00
51297;BME280;37380;45.186;9.792;2022-10-17T06:39:13;102381.28;;;16.13;100.00
51297;BME280;37380;45.186;9.792;2022-10-17T06:41:52;102388.25;;;16.35;100.00
51297;BME280;37380;45.186;9.792;2022-10-17T06:44:19;102396.91;;;16.55;100.00
51297;BME280;37380;45.186;9.792;2022-10-17T06:46:55;102394.03;;;16.71;100.00
51297;BME280;37380;45.186;9.792;2022-10-17T06:49:22;102403.97;;;16.78;100.00
51297;BME280;37380;45.186;9.792;2022-10-17T06:52:09;102407.00;;;16.89;100.00
51297;BME280;37380;45.186;9.792;2022-10-17T06:54:44;102408.75;;;16.88;100.00
51297;BME280;37380;45.186;9.792;2022-10-17T06:57:37;102409.50;;;16.84;100.00
51297;BME280;37380;45.186;9.792;2022-10-17T07:00:34;102408.44;;;16.79;100.00
51297;BME280;37380;45.186;9.792;2022-10-17T07:03:07;102406.09;;;16.64;100.00
51297;BME280;37380;45.186;9.792;2022-10-17T07:06:09;102410.03;;;16.75;100.00
51297;BME280;37380;45.186;9.792;2022-10-17T07:09:09;102410.31;;;16.83;100.00
51297;BME280;37380;45.186;9.792;2022-10-17T07:11:36;102413.38;;;16.94;100.00
51297;BME280;37380;45.186;9.792;2022-10-17T07:14:03;102430.09;;;16.94;100.00
51297;BME280;37380;45.186;9.792;2022-10-17T07:16:29;102423.25;;;17.00;100.00
51297;BME280;37380;45.186;9.792;2022-10-17T07:19:12;102429.34;;;16.98;100.00
51297;BME280;37380;45.186;9.792;2022-10-17T07:22:13;102435.13;;;17.12;100.00
51297;BME280;37380;45.186;9.792;2022-10-17T07:25:08;102430.25;;;17.23;100.00
51297;BME280;37380;45.186;9.792;2022-10-17T07:27:42;102437.63;;;17.33;100.00
51297;BME280;37380;45.186;9.792;2022-10-17T07:30:09;102441.31;;;17.38;100.00
51297;BME280;37380;45.186;9.792;2022-10-17T07:32:39;102440.59;;;17.42;100.00
51297;BME280;37380;45.186;9.792;2022-10-17T07:35:07;102454.47;;;17.62;100.00
51297;BME280;37380;45.186;9.792;2022-10-17T07:37:34;102451.03;;;17.65;100.00
51297;BME280;37380;45.186;9.792;2022-10-17T07:40:02;102453.22;;;17.51;100.00
51297;BME280;37380;45.186;9.792;2022-10-17T07:42:29;102444.72;;;17.60;100.00
51297;BME280;37380;45.186;9.792;2022-10-17T07:44:57;102444.38;;;17.51;100.00
51297;BME280;37380;45.186;9.792;2022-10-17T07:47:32;102450.78;;;17.57;100.00
51297;BME280;37380;45.186;9.792;2022-10-17T07:50:33;102448.00;;;17.78;100.00
51297;BME280;37380;45.186;9.792;2022-10-17T07:53:28;102452.09;;;17.96;100.00
51297;BME280;37380;45.186;9.792;2022-10-17T07:56:15;102460.59;;;18.14;100.00
51297;BME280;37380;45.186;9.792;2022-10-17T07:59:07;102458.88;;;17.87;100.00
51297;BME280;37380;45.186;9.792;2022-10-17T08:01:41;102462.81;;;18.29;100.00
51297;BME280;37380;45.186;9.792;2022-10-17T08:04:42;102455.31;;;18.43;100.00
51297;BME280;37380;45.186;9.792;2022-10-17T08:07:43;102454.00;;;18.59;100.00
51297;BME280;37380;45.186;9.792;2022-10-17T08:10:38;102467.19;;;18.00;100.00
51297;BME280;37380;45.186;9.792;2022-10-17T08:13:05;102459.47;;;18.35;100.00
51297;BME280;37380;45.186;9.792;2022-10-17T08:15:31;102460.50;;;18.68;100.00
51297;BME280;37380;45.186;9.792;2022-10-17T08:18:04;102458.56;;;18.91;100.00
51297;BME280;37380;45.186;9.792;2022-10-17T08:20:59;102459.19;;;18.83;100.00
51297;BME280;37380;45.186;9.792;2022-10-17T08:23:27;102461.19;;;18.04;100.00
51297;BME280;37380;45.186;9.792;2022-10-17T08:25:54;102471.78;;;17.78;100.00
51297;BME280;37380;45.186;9.792;2022-10-17T08:28:24;102466.00;;;18.17;100.00
51297;BME280;37380;45.186;9.792;2022-10-17T08:30:50;102467.28;;;18.03;100.00
51297;BME280;37380;45.186;9.792;2022-10-17T08:33:17;102465.38;;;17.72;100.00
51297;BME280;37380;45.186;9.792;2022-10-17T08:35:54;102467.31;;;18.31;100.00
51297;BME280;37380;45.186;9.792;2022-10-17T08:38:28;102470.13;;;18.36;100.00
51297;BME280;37380;45.186;9.792;2022-10-17T08:41:43;102474.22;;;18.84;100.00
51297;BME280;37380;45.186;9.792;2022-10-17T08:48:01;102474.47;;;18.64;100.00
51297;BME280;37380;45.186;9.792;2022-10-17T08:53:05;102477.44;;;18.16;100.00
51297;BME280;37380;45.186;9.792;2022-10-17T08:56:02;102470.50;;;18.50;100.00
51297;BME280;37380;45.186;9.792;2022-10-17T08:58:34;102469.78;;;18.83;100.00
51297;BME280;37380;45.186;9.792;2022-10-17T09:06:34;102472.69;;;20.28;100.00
51297;BME280;37380;45.186;9.792;2022-10-17T09:14:19;102475.94;;;19.13;100.00
51297;BME280;37380;45.186;9.792;2022-10-17T09:19:34;102485.66;;;19.46;100.00
51297;BME280;37380;45.186;9.792;2022-10-17T09:22:32;102479.66;;;20.62;100.00
51297;BME280;37380;45.186;9.792;2022-10-17T09:25:09;102480.56;;;19.20;100.00
51297;BME280;37380;45.186;9.792;2022-10-17T09:28:05;102477.47;;;18.73;100.00
51297;BME280;37380;45.186;9.792;2022-10-17T09:30:41;102468.19;;;19.89;100.00
51297;BME280;37380;45.186;9.792;2022-10-17T09:33:19;102467.53;;;20.35;100.00
51297;BME280;37380;45.186;9.792;2022-10-17T09:36:37;102471.22;;;21.27;100.00
51297;BME280;37380;45.186;9.792;2022-10-17T09:39:15;102465.75;;;21.19;100.00
51297;BME280;37380;45.186;9.792;2022-10-17T09:41:46;102464.19;;;20.85;100.00
51297;BME280;37380;45.186;9.792;2022-10-17T09:44:33;102469.97;;;21.54;100.00
51297;BME280;37380;45.186;9.792;2022-10-17T09:50:19;102467.50;;;21.66;100.00
51297;BME280;37380;45.186;9.792;2022-10-17T09:53:15;102468.16;;;22.06;100.00
51297;BME280;37380;45.186;9.792;2022-10-17T09:55:45;102473.47;;;22.06;100.00
51297;BME280;37380;45.186;9.792;2022-10-17T09:58:15;102472.34;;;22.48;100.00
51297;BME280;37380;45.186;9.792;2022-10-17T10:00:43;102473.47;;;22.06;100.00
51297;BME280;37380;45.186;9.792;2022-10-17T10:03:23;102471.31;;;20.45;100.00
51297;BME280;37380;45.186;9.792;2022-10-17T10:06:25;102472.88;;;21.69;100.00
51297;BME280;37380;45.186;9.792;2022-10-17T10:09:26;102474.06;;;21.85;100.00
51297;BME280;37380;45.186;9.792;2022-10-17T10:12:22;102471.31;;;22.38;100.00
51297;BME280;37380;45.186;9.792;2022-10-17T10:14:50;102472.97;;;22.30;100.00
51297;BME280;37380;45.186;9.792;2022-10-17T10:23:26;102472.06;;;22.95;100.00
51297;BME280;37380;45.186;9.792;2022-10-17T10:26:21;102464.16;;;22.34;100.00
51297;BME280;37380;45.186;9.792;2022-10-17T10:31:24;102469.81;;;22.60;100.00
51297;BME280;37380;45.186;9.792;2022-10-17T10:33:51;102470.59;;;22.51;100.00
51297;BME280;37380;45.186;9.792;2022-10-17T10:36:23;102466.84;;;23.02;100.00
51297;BME280;37380;45.186;9.792;2022-10-17T10:38:53;102466.81;;;22.99;100.00
51297;BME280;37380;45.186;9.792;2022-10-17T10:41:24;102472.44;;;20.56;100.00
51297;BME280;37380;45.186;9.792;2022-10-17T10:44:00;102460.94;;;20.56;100.00
51297;BME280;37380;45.186;9.792;2022-10-17T10:49:39;102463.63;;;20.57;100.00
51297;BME280;37380;45.186;9.792;2022-10-17T10:52:07;102465.53;;;20.65;100.00
51297;BME280;37380;45.186;9.792;2022-10-17T10:54:54;102460.16;;;21.06;100.00
51297;BME280;37380;45.186;9.792;2022-10-17T10:58:00;102461.31;;;21.67;100.00
51297;BME280;37380;45.186;9.792;2022-10-17T11:00:55;102465.44;;;21.50;100.00
51297;BME280;37380;45.186;9.792;2022-10-17T11:03:32;102462.84;;;22.07;100.00
51297;BME280;37380;45.186;9.792;2022-10-17T11:06:36;102459.13;;;21.41;100.00
51297;BME280;37380;45.186;9.792;2022-10-17T11:09:47;102466.69;;;22.23;100.00
51297;BME280;37380;45.186;9.792;2022-10-17T11:12:59;102453.81;;;21.41;100.00
51297;BME280;37380;45.186;9.792;2022-10-17T11:18:32;102439.44;;;21.35;100.00
51297;BME280;37380;45.186;9.792;2022-10-17T11:21:48;102433.56;;;22.06;100.00
51297;BME280;37380;45.186;9.792;2022-10-17T11:24:26;102438.06;;;22.75;100.00
51297;BME280;37380;45.186;9.792;2022-10-17T11:26:57;102440.03;;;21.67;100.00
51297;BME280;37380;45.186;9.792;2022-10-17T11:29:34;102438.16;;;21.60;100.00
51297;BME280;37380;45.186;9.792;2022-10-17T11:32:11;102438.94;;;22.09;100.00
51297;BME280;37380;45.186;9.792;2022-10-17T11:34:47;102434.00;;;22.36;100.00
51297;BME280;37380;45.186;9.792;2022-10-17T11:37:44;102429.06;;;22.64;100.00
51297;BME280;37380;45.186;9.792;2022-10-17T11:40:20;102421.22;;;22.79;100.00
51297;BME280;37380;45.186;9.792;2022-10-17T11:43:10;102433.19;;;23.14;100.00
51297;BME280;37380;45.186;9.792;2022-10-17T11:49:14;102419.00;;;21.84;100.00
51297;BME280;37380;45.186;9.792;2022-10-17T11:52:38;102427.78;;;21.77;100.00
51297;BME280;37380;45.186;9.792;2022-10-17T11:55:23;102427.69;;;21.72;100.00
51297;BME280;37380;45.186;9.792;2022-10-17T12:07:45;102405.13;;;22.03;100.00
51297;BME280;37380;45.186;9.792;2022-10-17T12:10:30;102416.25;;;21.76;100.00
51297;BME280;37380;45.186;9.792;2022-10-17T12:21:26;102395.97;;;22.47;100.00
51297;BME280;37380;45.186;9.792;2022-10-17T12:24:04;102402.03;;;22.35;100.00
51297;BME280;37380;45.186;9.792;2022-10-17T12:27:19;102395.59;;;22.19;100.00
51297;BME280;37380;45.186;9.792;2022-10-17T12:29:57;102390.94;;;22.71;100.00
51297;BME280;37380;45.186;9.792;2022-10-17T12:35:40;102387.75;;;23.03;100.00
51297;BME280;37380;45.186;9.792;2022-10-17T12:38:34;102385.13;;;23.09;100.00
51297;BME280;37380;45.186;9.792;2022-10-17T12:41:08;102387.97;;;23.26;100.00
51297;BME280;37380;45.186;9.792;2022-10-17T12:51:05;102376.75;;;22.72;100.00
51297;BME280;37380;45.186;9.792;2022-10-17T12:54:14;102371.63;;;22.19;100.00
51297;BME280;37380;45.186;9.792;2022-10-17T12:56:45;102368.81;;;22.10;100.00
51297;BME280;37380;45.186;9.792;2022-10-17T12:59:19;102365.75;;;22.45;100.00
51297;BME280;37380;45.186;9.792;2022-10-17T13:01:56;102370.50;;;22.70;100.00
51297;BME280;37380;45.186;9.792;2022-10-17T13:05:03;102361.66;;;22.73;100.00
51297;BME280;37380;45.186;9.792;2022-10-17T13:08:06;102355.44;;;22.74;100.00
51297;BME280;37380;45.186;9.792;2022-10-17T13:10:52;102351.28;;;22.99;100.00
51297;BME280;37380;45.186;9.792;2022-10-17T13:13:54;102346.94;;;23.10;100.00
51297;BME280;37380;45.186;9.792;2022-10-17T13:18:53;102345.63;;;22.71;100.00
51297;BME280;37380;45.186;9.792;2022-10-17T13:21:20;102347.28;;;22.58;100.00
51297;BME280;37380;45.186;9.792;2022-10-17T13:23:47;102339.53;;;22.81;100.00
51297;BME280;37380;45.186;9.792;2022-10-17T13:26:17;102341.31;;;22.82;100.00
51297;BME280;37380;45.186;9.792;2022-10-17T13:29:03;102333.16;;;22.67;100.00
51297;BME280;37380;45.186;9.792;2022-10-17T13:31:33;102330.63;;;22.79;100.00
51297;BME280;37380;45.186;9.792;2022-10-17T13:34:17;102330.81;;;22.98;100.00
51297;BME280;37380;45.186;9.792;2022-10-17T13:37:11;102333.63;;;23.10;100.00
51297;BME280;37380;45.186;9.792;2022-10-17T13:39:46;102331.00;;;23.16;100.00
51297;BME280;37380;45.186;9.792;2022-10-17T13:43:25;102331.88;;;23.14;100.00
51297;BME280;37380;45.186;9.792;2022-10-17T13:46:27;102329.81;;;22.88;100.00
51297;BME280;37380;45.186;9.792;2022-10-17T13:49:33;102325.28;;;22.78;96.73
51297;BME280;37380;45.186;9.792;2022-10-17T13:52:38;102326.03;;;22.65;94.49
51297;BME280;37380;45.186;9.792;2022-10-17T13:55:32;102320.78;;;22.72;93.45
51297;BME280;37380;45.186;9.792;2022-10-17T13:58:13;102318.13;;;22.72;91.94
51297;BME280;37380;45.186;9.792;2022-10-17T14:00:40;102322.91;;;23.05;90.48
51297;BME280;37380;45.186;9.792;2022-10-17T14:03:14;102322.91;;;23.05;92.18
51297;BME280;37380;45.186;9.792;2022-10-17T14:06:34;102314.75;;;22.92;91.43
51297;BME280;37380;45.186;9.792;2022-10-17T14:09:40;102320.88;;;22.81;92.71
51297;BME280;37380;45.186;9.792;2022-10-17T14:12:34;102315.34;;;22.62;92.83
51297;BME280;37380;45.186;9.792;2022-10-17T14:15:01;102313.06;;;23.00;91.60
51297;BME280;37380;45.186;9.792;2022-10-17T14:17:37;102315.59;;;22.88;92.72
51297;BME280;37380;45.186;9.792;2022-10-17T14:20:05;102307.38;;;22.63;94.51
51297;BME280;37380;45.186;9.792;2022-10-17T14:22:54;102304.09;;;22.90;94.04
51297;BME280;37380;45.186;9.792;2022-10-17T14:25:40;102305.09;;;22.98;93.26
51297;BME280;37380;45.186;9.792;2022-10-17T14:30:46;102303.78;;;22.58;95.57
51297;BME280;37380;45.186;9.792;2022-10-17T14:33:29;102309.06;;;22.55;95.66
51297;BME280;37380;45.186;9.792;2022-10-17T14:36:39;102303.78;;;22.61;95.12
51297;BME280;37380;45.186;9.792;2022-10-17T14:39:41;102292.44;;;22.79;95.11
51297;BME280;37380;45.186;9.792;2022-10-17T14:42:42;102305.75;;;22.80;96.47
51297;BME280;37380;45.186;9.792;2022-10-17T14:45:44;102311.88;;;22.72;93.40
51297;BME280;37380;45.186;9.792;2022-10-17T14:48:45;102314.59;;;22.75;93.27
51297;BME280;37380;45.186;9.792;2022-10-17T14:54:50;102303.81;;;22.64;92.75
51297;BME280;37380;45.186;9.792;2022-10-17T14:57:44;102296.56;;;22.51;92.75
51297;BME280;37380;45.186;9.792;2022-10-17T15:00:18;102294.88;;;22.59;91.92
51297;BME280;37380;45.186;9.792;2022-10-17T15:03:19;102293.06;;;22.53;95.08
51297;BME280;37380;45.186;9.792;2022-10-17T15:06:21;102301.13;;;22.63;93.23
51297;BME280;37380;45.186;9.792;2022-10-17T15:09:16;102293.97;;;22.57;93.86
51297;BME280;37380;45.186;9.792;2022-10-17T15:11:49;102289.47;;;22.50;93.32
51297;BME280;37380;45.186;9.792;2022-10-17T15:14:43;102296.53;;;22.46;94.77
51297;BME280;37380;45.186;9.792;2022-10-17T15:17:27;102290.22;;;22.38;96.59
51297;BME280;37380;45.186;9.792;2022-10-17T15:20:28;102291.69;;;22.16;97.80
51297;BME280;37380;45.186;9.792;2022-10-17T15:23:22;102291.63;;;22.10;97.36
51297;BME280;37380;45.186;9.792;2022-10-17T15:25:49;102290.63;;;22.02;96.30
51297;BME280;37380;45.186;9.792;2022-10-17T15:28:16;102291.53;;;22.01;96.73
51297;BME280;37380;45.186;9.792;2022-10-17T15:30:43;102291.50;;;21.99;97.52
51297;BME280;37380;45.186;9.792;2022-10-17T15:33:16;102289.72;;;21.97;99.03
51297;BME280;37380;45.186;9.792;2022-10-17T15:36:21;102285.13;;;21.86;100.00
51297;BME280;37380;45.186;9.792;2022-10-17T15:38:48;102287.75;;;21.82;100.00
51297;BME280;37380;45.186;9.792;2022-10-17T15:41:16;102297.34;;;21.72;100.00
51297;BME280;37380;45.186;9.792;2022-10-17T15:43:49;102295.44;;;21.62;100.00
51297;BME280;37380;45.186;9.792;2022-10-17T15:46:43;102293.41;;;21.45;100.00
51297;BME280;37380;45.186;9.792;2022-10-17T15:49:11;102298.63;;;21.39;100.00
51297;BME280;37380;45.186;9.792;2022-10-17T15:51:39;102300.47;;;21.42;100.00
51297;BME280;37380;45.186;9.792;2022-10-17T15:54:13;102296.06;;;21.44;100.00
51297;BME280;37380;45.186;9.792;2022-10-17T16:00:22;102295.47;;;21.10;100.00
51297;BME280;37380;45.186;9.792;2022-10-17T16:02:49;102298.78;;;20.97;100.00
51297;BME280;37380;45.186;9.792;2022-10-17T16:05:23;102298.63;;;20.86;100.00
51297;BME280;37380;45.186;9.792;2022-10-17T16:07:54;102300.97;;;20.71;100.00
51297;BME280;37380;45.186;9.792;2022-10-17T16:10:29;102301.63;;;20.57;100.00
51297;BME280;37380;45.186;9.792;2022-10-17T16:13:30;102303.09;;;20.45;100.00
51297;BME280;37380;45.186;9.792;2022-10-17T16:16:17;102298.41;;;20.30;100.00
51297;BME280;37380;45.186;9.792;2022-10-17T16:18:44;102312.31;;;20.17;100.00
51297;BME280;37380;45.186;9.792;2022-10-17T16:21:12;102308.66;;;20.11;100.00
51297;BME280;37380;45.186;9.792;2022-10-17T16:23:40;102320.19;;;20.13;100.00
51297;BME280;37380;45.186;9.792;2022-10-17T16:26:07;102311.88;;;19.98;100.00
51297;BME280;37380;45.186;9.792;2022-10-17T16:28:35;102315.97;;;19.82;100.00
51297;BME280;37380;45.186;9.792;2022-10-17T16:31:21;102313.94;;;19.71;100.00
51297;BME280;37380;45.186;9.792;2022-10-17T16:34:22;102315.34;;;19.56;100.00
51297;BME280;37380;45.186;9.792;2022-10-17T16:37:24;102319.41;;;19.40;100.00
51297;BME280;37380;45.186;9.792;2022-10-17T16:40:25;102319.88;;;19.24;100.00
51297;BME280;37380;45.186;9.792;2022-10-17T16:43:26;102322.16;;;19.10;100.00
51297;BME280;37380;45.186;9.792;2022-10-17T16:46:22;102328.94;;;18.99;100.00
51297;BME280;37380;45.186;9.792;2022-10-17T16:48:49;102321.66;;;18.90;100.00
51297;BME280;37380;45.186;9.792;2022-10-17T16:51:17;102328.63;;;18.87;100.00
51297;BME280;37380;45.186;9.792;2022-10-17T16:53:51;102323.25;;;18.84;100.00
51297;BME280;37380;45.186;9.792;2022-10-17T16:56:52;102326.69;;;18.80;100.00
51297;BME280;37380;45.186;9.792;2022-10-17T16:59:46;102339.00;;;18.79;100.00
51297;BME280;37380;45.186;9.792;2022-10-17T17:02:13;102329.28;;;18.78;100.00
51297;BME280;37380;45.186;9.792;2022-10-17T17:04:45;102334.66;;;18.81;100.00
51297;BME280;37380;45.186;9.792;2022-10-17T17:07:12;102339.28;;;18.88;100.00
51297;BME280;37380;45.186;9.792;2022-10-17T17:09:40;102335.91;;;18.94;100.00
51297;BME280;37380;45.186;9.792;2022-10-17T17:12:06;102337.53;;;18.90;100.00
51297;BME280;37380;45.186;9.792;2022-10-17T17:14:33;102336.13;;;19.03;100.00
51297;BME280;37380;45.186;9.792;2022-10-17T17:17:07;102344.50;;;18.85;100.00
51297;BME280;37380;45.186;9.792;2022-10-17T17:20:23;102343.66;;;18.88;100.00
51297;BME280;37380;45.186;9.792;2022-10-17T17:23:17;102352.03;;;19.03;100.00
51297;BME280;37380;45.186;9.792;2022-10-17T17:25:44;102345.50;;;18.90;100.00
51297;BME280;37380;45.186;9.792;2022-10-17T17:28:18;102344.81;;;18.66;100.00
51297;BME280;37380;45.186;9.792;2022-10-17T17:31:20;102351.28;;;18.45;100.00